Weather observations for the past three days for
Fort Worth Spinks Airport
Metric (Imperial)
Date Time (cdt) Wind (kph) Vis. (km) Weather Sky Cond. Temperature (ºC) Relative Humidity Wind Chill (°C) Heat Index (°C) Pressure Precipitation (cm)
Air Dwpt 6 hour altimeter (cm) sea level (mb) 1 hr 3 hr 6 hr
Max. Min.
31 15:51 S 22 16.09 Partly Cloudy SCT080 38 16 27% 39 76.1 0.0
31 14:47 S 20 G 30 16.09 Partly Cloudy SCT080 38 15 25% 38 76.15 0.0
31 13:48 SE 28 16.09 Partly Cloudy SCT075 37 17 31% 38 76.2 0.0
31 12:50 S 24 16.09 A Few Clouds FEW080 37 17 31% 38 76.28 0.0
31 11:50 SW 17 16.09 Fair CLR 35 18 36% 36 76.33 0.0
31 10:55 SW 15 16.09 Fair CLR 34 18 39% 35 76.33 0.0
31 09:53 SW 24 16.09 Fair CLR 31 20 52% 33 76.3 0.0
31 08:53 S 11 16.09 Fair CLR 28 21 66% 30 76.3 0.0
31 07:55 S 11 16.09 Fair CLR 26 22 79% 28 76.25 0.0
31 06:48 S 11 16.09 Fair CLR 24 21 83% 24 76.2 0.0
31 06:35 S 11 16.09 Fair CLR 24.2 20.5 80% 25 76.17 0.0
31 06:15 S 9 16.09 Fair CLR 24.5 20.5 78% 25 76.15 0.0
31 05:55 S 9 16.09 Fair CLR 24.9 20.4 76% 26 76.15 0.0
31 05:35 S 9 16.09 Fair CLR 25.1 20.4 75% 26 76.15 0.0
31 05:15 S 11 16.09 Fair CLR 25.6 20.4 73% 27 76.15 0.0
31 04:55 S 9 16.09 Fair CLR 25.8 20.2 71% 27 76.15 0.0
31 04:35 SW 11 16.09 Fair CLR 26.4 20.1 68% 28 76.15 0.0
31 04:15 S 11 16.09 Fair CLR 26.3 20.1 69% 28 76.15 0.0
31 03:55 S 11 16.09 Fair CLR 26.9 19.8 65% 28 76.12 0.0
31 03:35 S 11 16.09 Fair CLR 27.3 19.7 63% 29 76.12 0.0
31 03:15 S 11 16.09 Fair CLR 27.7 19.6 61% 29 76.12 0.0
31 02:55 SW 13 16.09 Fair CLR 28.2 19.2 58% 30 76.12 0.0
31 02:35 S 15 16.09 Fair CLR 28.6 19.2 57% 30 76.12 0.0
31 02:15 S 13 16.09 Fair CLR 28.9 19.1 55% 30 76.12 0.0
31 01:55 S 15 16.09 Fair CLR 28.5 18.3 54% 29 76.12 0.0
31 01:35 S 11 16.09 Fair CLR 27.6 17.4 54% 28 76.12 0.0
31 01:15 S 11 16.09 Fair CLR 27.2 16.9 53% 28 76.12 0.0
31 00:55 S 9 16.09 Fair CLR 27.6 16.4 36 27 51% 28 76.12 0.0
31 00:35 S 7 16.09 Fair CLR 28 16.3 49% 28 76.12 0.0
31 00:15 S 9 16.09 Fair CLR 28.2 16.1 48% 28 76.12 0.0
30 23:55 S 9 16.09 Fair CLR 28.4 15.9 47% 29 76.1 0.0
30 23:35 S 11 16.09 Fair CLR 28.6 15.9 46% 29 76.1 0.0
30 23:15 S 9 16.09 Fair CLR 27.1 16 51% 28 76.1 0.0
30 22:55 S 7 16.09 Fair CLR 27.6 16.1 50% 28 76.1 0.0
30 22:35 S 6 16.09 Fair CLR 27.3 16.3 51% 28 76.07 0.0
30 22:15 S 7 16.09 Fair CLR 28 16.4 49% 28 76.07 0.0
30 21:55 SE 9 16.09 Fair CLR 27.7 16.4 50% 28 76.05 0.0
30 21:35 SE 7 16.09 A Few Clouds FEW085 27.6 16 49% 28 76.05 0.0
30 21:15 SE 6 16.09 A Few Clouds FEW085 28.8 15.8 45% 29 76.02 0.0
30 20:55 SE 7 16.09 Fair CLR 30.1 15.5 41% 30 76 0.0
30 20:35 SE 6 16.09 Fair CLR 30.5 15 39% 30 75.97 0.0
30 20:15 S 9 16.09 Fair CLR 31.4 14.3 35% 31 75.97 0.0
30 19:55 S 11 16.09 Fair CLR 33.9 14 30% 33 75.97 0.0
30 18:51 S 20 16.09 Fair CLR 36 15 28% 36 75.97 0.0
30 17:50 S 26 G 33 16.09 Fair CLR 38 14 24% 38 75.97 0.0
30 16:40 SE 20 16.09 Fair CLR 38 15 25% 38 75.97 0.0
30 15:56 S 20 G 31 16.09 Fair CLR 38 15 25% 38 76.02 0.0
30 14:47 SE 22 16.09 Fair CLR 39 15 24% 39 76.1 0.0
30 13:55 S 13 16.09 Fair CLR 37 16 29% 37 76.15 0.0
30 12:55 S 22 G 31 16.09 Fair CLR 37 16 29% 37 76.2 0.0
30 12:47 SW 17 16.09 Fair CLR 37 16 29% 37 76.23 0.0
30 11:52 S 20 16.09 Fair CLR 36 16 30% 36 76.28 0.0
30 10:54 S 17 16.09 Fair CLR 34 19 41% 36 76.3 0.0
30 09:55 S 11 16.09 Fair CLR 32 20 49% 34 76.3 0.0
30 08:48 S 11 16.09 Fair CLR 29 21 62% 31 76.3 0.0
30 07:51 SW 11 16.09 Fair CLR 26 21 74% 27 76.25 0.0
30 06:50 SW 11 16.09 Fair CLR 26 21 74% 27 76.2 0.0
30 06:35 S 9 16.09 Fair CLR 25.4 21 77% 27 76.17 0.0
30 06:15 SW 9 16.09 Fair CLR 25.9 20.9 74% 27 76.17 0.0
30 05:55 SW 11 16.09 Fair CLR 26 20.7 73% 27 76.15 0.0
30 05:35 S 13 16.09 Fair CLR 26 20.5 72% 27 76.15 0.0
30 05:15 S 11 16.09 Fair CLR 26.1 20.2 70% 27 76.15 0.0
30 04:55 S 11 16.09 Fair CLR 26.1 20 69% 27 76.15 0.0
30 04:35 S 9 16.09 Fair CLR 25.9 19.7 69% 27 76.12 0.0
30 04:15 S 9 16.09 Fair CLR 26.5 19.6 66% 28 76.15 0.0
30 03:55 S 9 16.09 Fair CLR 27.1 19.4 63% 28 76.15 0.0
30 03:35 SW 11 16.09 Fair CLR 27.5 19.2 61% 29 76.12 0.0
30 03:15 SW 13 16.09 Fair CLR 28.4 19.1 57% 30 76.12 0.0
30 02:55 SW 17 16.09 Fair CLR 28.6 18.8 55% 30 76.15 0.0
30 02:35 SW 17 16.09 Fair CLR 28.8 18.6 54% 30 76.12 0.0
30 02:15 SW 15 16.09 Fair CLR 29.1 18.4 52% 30 76.15 0.0
30 01:55 S 13 16.09 Fair CLR 28.9 18.3 53% 30 76.15 0.0
30 01:35 S 11 16.09 Fair CLR 28.9 18.3 53% 30 76.15 0.0
30 01:15 S 11 16.09 Fair CLR 28.7 18.2 53% 30 76.15 0.0
30 00:55 SW 11 16.09 Fair CLR 28.9 17.9 36.5 28.1 51% 30 76.15 0.0
30 00:35 S 11 16.09 Fair CLR 29.2 17.6 50% 30 76.15 0.0
30 00:15 S 9 16.09 Fair CLR 28.9 17.4 50% 30 76.15 0.0
29 23:55 S 11 16.09 Fair CLR 29.7 17 46% 30 76.15 0.0
29 23:35 S 13 16.09 Fair CLR 29.9 16.9 46% 30 76.15 0.0
29 23:15 S 11 16.09 Fair CLR 29.6 16.6 45% 30 76.15 0.0
29 22:55 S 9 16.09 Fair CLR 28.6 16.7 49% 29 76.15 0.0
29 22:35 S 9 16.09 Fair CLR 28.4 16.6 49% 29 76.12 0.0
29 22:15 SE 9 16.09 Fair CLR 29.2 16.4 46% 29 76.12 0.0
29 21:55 S 9 16.09 Fair CLR 29.1 16.3 46% 29 76.12 0.0
29 21:35 SE 11 16.09 Fair CLR 29.1 16.3 46% 29 76.1 0.0
29 21:15 S 7 16.09 Fair CLR 29.5 16.5 45% 30 76.07 0.0
29 20:55 S 9 16.09 Fair CLR 30.2 15.7 41% 30 76.05 0.0
29 20:35 S 7 16.09 Fair CLR 31 15.8 40% 31 76.05 0.0
29 20:15 S 7 16.09 Fair CLR 32.1 15.1 36% 32 76.05 0.0
29 19:55 S 11 16.09 Fair CLR 34 14.6 31% 33 76.05 0.0
29 18:55 SE 13 16.09 Fair CLR 36 15 28% 36 76.05 0.0
29 17:50 SE 9 16.09 Fair CLR 38 14 24% 38 76.05 0.0
29 16:50 SE 15 16.09 Fair CLR 39 15 24% 39 76.07 0.0
29 15:53 SE 15 16.09 Fair CLR 39 15 24% 39 76.12 0.0
29 14:50 SE 11 16.09 Partly Cloudy SCT110 38 15 25% 38 76.2 0.0
29 13:50 SE 19 16.09 Fair CLR 37 17 31% 38 76.25 0.0
29 12:50 SE 15 16.09 Fair CLR 37 18 33% 39 76.33 0.0
29 10:45 SE 9 16.09 Fair CLR 32 20 49% 34 76.38 0.0
29 09:50 S 6 16.09 Fair CLR 30 21 59% 33 76.38 0.0
29 08:49 S 6 16.09 Fair CLR 27 21 70% 29 76.38 0.0
29 07:50 S 7 16.09 Fair CLR 23 21 89% 76.35 0.0
29 06:47 S 6 16.09 Fair CLR 22 20 88% 76.33 0.0
29 06:35 Calm 16.09 Fair CLR 22.5 20 86% 76.33 0.0
29 06:15 Calm 16.09 Fair CLR 22.5 20 86% 76.33 0.0
29 05:55 S 6 16.09 Fair CLR 22.8 19.9 84% 76.3 0.0
29 05:35 S 7 16.09 Fair CLR 23.6 20.1 81% 76.3 0.0
29 05:15 S 7 16.09 Fair CLR 23.3 20 82% 76.33 0.0
29 04:55 S 9 16.09 Fair CLR 24.2 20.2 78% 25 76.3 0.0
29 04:35 S 9 16.09 Fair CLR 24.2 20.1 78% 25 76.3 0.0
29 04:15 S 6 16.09 Fair CLR 24.2 20.2 78% 25 76.3 0.0
29 03:55 S 6 16.09 Fair CLR 23.7 20 80% 76.28 0.0
29 03:35 SE 6 16.09 Fair CLR 23.7 19.9 79% 76.28 0.0
29 03:15 Calm 16.09 Fair CLR 24.1 20 78% 25 76.28 0.0
29 02:55 SE 6 16.09 Fair CLR 25 20.1 74% 26 76.28 0.0
29 02:35 SE 6 16.09 Fair CLR 25.1 20 73% 26 76.28 0.0
29 02:15 S 6 16.09 Fair CLR 24.9 19.7 73% 26 76.28 0.0
29 01:55 S 6 16.09 Fair CLR 26.3 19.9 68% 28 76.28 0.0
29 01:35 Calm 16.09 Fair CLR 26.4 19.9 68% 28 76.28 0.0
29 01:15 S 6 16.09 Fair CLR 26.6 19.8 66% 28 76.28 0.0
29 00:55 S 9 16.09 Fair CLR 27.4 19.8 36.9 27.4 63% 29 76.28 0.0
29 00:35 S 9 16.09 Fair CLR 28.4 19.6 59% 30 76.28 0.0
29 00:15 S 15 16.09 Fair CLR 29.2 19.5 56% 31 76.28 0.0
28 23:55 S 11 16.09 Fair CLR 29.3 18.8 53% 30 76.28 0.0
28 23:35 S 9 16.09 Fair CLR 29.1 18.5 53% 30 76.28 0.0
28 23:15 S 9 16.09 Fair CLR 29.9 17.9 49% 31 76.25 0.0
28 22:55 S 13 16.09 Fair CLR 30.4 16.2 42% 30 76.25 0.0
28 22:35 Calm 16.09 Fair CLR 30.4 15.3 40% 30 76.2 0.0
28 22:15 SE 7 16.09 Fair CLR 30.8 15.5 40% 31 76.2 0.0
28 21:55 E 9 16.09 Mostly Cloudy BKN100 32.3 15.3 36% 32 76.17 0.0
28 21:35 SE 9 16.09 Mostly Cloudy BKN100 30.5 15.3 40% 30 76.17 0.0
28 21:15 SE 6 16.09 Partly Cloudy SCT100 29.9 14.7 40% 30 76.15 0.0
28 20:55 SE 7 16.09 Fair CLR 33.1 14.5 32% 33 76.12 0.0
28 20:35 SE 9 16.09 Fair CLR 32.4 14.8 34% 32 76.12 0.0
28 20:15 SE 6 16.09 Fair CLR 31.5 15.2 37% 31 76.1 0.0
28 19:55 E 7 16.09 Fair CLR 34.5 14.2 29% 34 76.1 0.0
28 18:49 E 11 16.09 A Few Clouds FEW090 37 15 27% 37 76.05 0.0
28 17:50 NE 11 16.09 Partly Cloudy SCT090 38 14 24% 38 76.07 0.0
28 16:51 SE 17 16.09 Partly Cloudy SCT090 39 14 23% 39 76.1 0.0
Date Time (cdt) Wind (kph) Vis. (km) Weather Sky Cond. Air Dwpt Max. Min. Relative Humidity Wind Chill (°C) Heat Index (°C) altimeter (cm) sea level (mb) 1 hr 3 hr 6 hr
6 hour
Temperature (ºC) Pressure Precipitation (cm)